Time;durP1;ratioP1;P1;durP2;ratioP2;P2;SDS_P1;SDS_P2;PMS_P1;PMS_P2;Temp;Humidity;BMP_temperature;BMP_pressure;BME280_temperature;BME280_humidity;BME280_pressure;Samples;Min_cycle;Max_cycle;Signal;HPM_P1;HPM_P2
2022/09/07 00:00:42;;;;;;;10.50;5.50;;;21.60;99.90;;;;;;6304434;22;20009;-77
2022/09/07 00:03:08;;;;;;;5.72;5.22;;;21.60;99.90;;;;;;6277346;22;20141;-77
2022/09/07 00:05:43;;;;;;;9.85;5.85;;;21.60;99.90;;;;;;6304963;22;20004;-77
2022/09/07 00:08:09;;;;;;;8.55;5.97;;;21.60;99.90;;;;;;6304856;22;20381;-77
2022/09/07 00:10:35;;;;;;;7.28;5.93;;;21.50;99.90;;;;;;6304511;22;19999;-77
2022/09/07 00:13:01;;;;;;;6.78;5.70;;;21.50;99.90;;;;;;6304724;22;20453;-77
2022/09/07 00:15:27;;;;;;;7.22;6.00;;;21.50;99.90;;;;;;6277306;22;20007;-77
2022/09/07 00:17:53;;;;;;;11.30;5.93;;;21.50;99.90;;;;;;6306730;22;20005;-77
2022/09/07 00:20:18;;;;;;;8.95;6.95;;;21.50;99.90;;;;;;6279611;22;20007;-76
2022/09/07 00:22:45;;;;;;;6.88;6.15;;;21.40;99.90;;;;;;6306780;22;20035;-77
2022/09/07 00:25:11;;;;;;;6.05;5.38;;;21.40;99.90;;;;;;6279456;22;20011;-76
2022/09/07 00:27:37;;;;;;;7.15;5.93;;;21.40;99.90;;;;;;6279336;22;20441;-76
2022/09/07 00:30:04;;;;;;;8.18;5.80;;;21.40;99.90;;;;;;6279125;22;20004;-76
2022/09/07 00:32:30;;;;;;;8.25;6.15;;;21.40;99.90;;;;;;6305636;22;20003;-77
2022/09/07 00:34:56;;;;;;;6.70;5.88;;;21.40;99.90;;;;;;6306924;22;20015;-77
2022/09/07 00:37:22;;;;;;;8.98;5.65;;;21.40;99.90;;;;;;6306598;22;20519;-77
2022/09/07 00:39:48;;;;;;;6.80;5.25;;;21.40;99.90;;;;;;6279219;22;20011;-76
2022/09/07 00:42:17;;;;;;;6.63;5.60;;;21.40;99.90;;;;;;6306625;22;20036;-76
2022/09/07 00:44:43;;;;;;;11.35;6.05;;;21.40;99.90;;;;;;6277739;22;20003;-76
2022/09/07 00:47:26;;;;;;;8.23;5.90;;;21.30;99.90;;;;;;6306415;22;20427;-76
2022/09/07 00:50:03;;;;;;;9.75;6.82;;;21.30;99.90;;;;;;6306534;22;20002;-76
2022/09/07 00:52:31;;;;;;;6.93;6.25;;;21.40;99.90;;;;;;6306692;22;20006;-77
2022/09/07 00:55:02;;;;;;;6.90;6.15;;;21.40;99.90;;;;;;6306630;22;20039;-76
2022/09/07 00:57:28;;;;;;;11.32;6.30;;;21.30;99.90;;;;;;6306443;22;20000;-76
2022/09/07 00:59:56;;;;;;;7.07;5.80;;;21.40;99.90;;;;;;6306049;22;20212;-76
2022/09/07 01:02:23;;;;;;;6.93;5.30;;;21.40;99.90;;;;;;6306313;22;20006;-77
2022/09/07 01:04:56;;;;;;;9.55;5.60;;;21.30;99.90;;;;;;6306603;22;20464;-76
2022/09/07 01:07:22;;;;;;;;;;;21.30;99.90;;;;;;6307028;22;20000;-76
2022/09/07 01:09:49;;;;;;;10.15;6.40;;;21.30;99.90;;;;;;6279053;22;19926;-76
2022/09/07 01:12:15;;;;;;;7.70;5.68;;;21.30;99.90;;;;;;6306119;22;20003;-76
2022/09/07 01:14:48;;;;;;;6.10;5.50;;;21.30;99.90;;;;;;6306553;22;20015;-76
2022/09/07 01:17:23;;;;;;;8.57;5.32;;;21.30;99.90;;;;;;6306066;22;20023;-76
2022/09/07 01:19:57;;;;;;;6.22;5.60;;;21.30;99.90;;;;;;6278892;22;20010;-77
2022/09/07 01:22:38;;;;;;;7.00;5.60;;;21.30;99.90;;;;;;6306053;22;20050;-76
2022/09/07 01:25:04;;;;;;;7.22;5.25;;;21.30;99.90;;;;;;6279021;22;20430;-76
2022/09/07 01:27:51;;;;;;;7.18;5.40;;;21.30;99.90;;;;;;6305656;22;20011;-76
2022/09/07 01:30:18;;;;;;;8.98;5.07;;;21.40;99.90;;;;;;6278758;22;20011;-76
2022/09/07 01:33:09;;;;;;;9.40;5.80;;;21.40;99.90;;;;;;6305934;22;20011;-76
2022/09/07 01:35:44;;;;;;;7.25;5.88;;;21.40;99.90;;;;;;6278736;22;20339;-76
2022/09/07 01:38:23;;;;;;;8.57;5.45;;;21.30;99.90;;;;;;6278786;22;20008;-77
2022/09/07 01:40:58;;;;;;;6.93;5.97;;;21.30;99.90;;;;;;6305850;22;20010;-75
2022/09/07 01:43:28;;;;;;;6.20;5.57;;;21.30;99.90;;;;;;6278823;22;19999;-76
2022/09/07 01:45:56;;;;;;;6.47;5.72;;;21.30;99.90;;;;;;6278596;22;20407;-77
2022/09/07 01:48:24;;;;;;;9.13;5.85;;;21.40;99.90;;;;;;6278972;22;20003;-76
2022/09/07 01:51:01;;;;;;;6.18;5.68;;;21.40;99.90;;;;;;6305899;22;20006;-77
2022/09/07 01:53:41;;;;;;;6.28;5.57;;;21.40;99.90;;;;;;6306036;22;20027;-76
2022/09/07 01:56:39;;;;;;;8.18;5.65;;;21.40;99.90;;;;;;6305233;22;20007;-76
2022/09/07 01:59:20;;;;;;;7.85;5.68;;;21.30;99.90;;;;;;6306070;22;20003;-76
2022/09/07 02:02:07;;;;;;;7.68;5.47;;;21.30;99.90;;;;;;6305450;22;20003;-76
2022/09/07 02:04:57;;;;;;;7.40;5.90;;;21.30;99.90;;;;;;6306262;22;20460;-77
2022/09/07 02:07:25;;;;;;;6.60;5.68;;;21.20;99.90;;;;;;6305761;22;20006;-77
2022/09/07 02:09:57;;;;;;;6.50;5.90;;;21.20;99.90;;;;;;6305857;22;19999;-77
2022/09/07 02:12:58;;;;;;;7.15;5.78;;;21.20;99.90;;;;;;6305600;22;20128;-77
2022/09/07 02:15:37;;;;;;;14.07;5.72;;;21.20;99.90;;;;;;6299636;22;20015;-77
2022/09/07 02:18:06;;;;;;;6.32;5.72;;;21.20;99.90;;;;;;6305779;22;20049;-76
2022/09/07 02:20:36;;;;;;;7.05;5.80;;;21.20;99.90;;;;;;6305515;22;20005;-76
2022/09/07 02:23:10;;;;;;;6.10;5.50;;;21.20;99.90;;;;;;6305737;22;19991;-76
2022/09/07 02:25:43;;;;;;;7.57;6.22;;;21.20;99.90;;;;;;6305752;22;20019;-76
2022/09/07 02:28:16;;;;;;;6.43;5.82;;;21.20;99.90;;;;;;6278058;22;20061;-76
2022/09/07 02:30:43;;;;;;;9.07;6.82;;;21.20;99.90;;;;;;6278154;22;20060;-76
2022/09/07 02:33:09;;;;;;;7.57;5.90;;;21.10;99.90;;;;;;6277985;22;20454;-76
2022/09/07 02:35:35;;;;;;;10.40;5.82;;;21.10;99.90;;;;;;6277906;22;20011;-76
2022/09/07 02:38:03;;;;;;;7.65;6.22;;;21.20;99.90;;;;;;6277878;22;20130;-76
2022/09/07 02:40:30;;;;;;;8.20;5.78;;;21.10;99.90;;;;;;6305336;22;20086;-76
2022/09/07 02:42:59;;;;;;;6.85;5.88;;;21.20;99.90;;;;;;6277715;22;19999;-76
2022/09/07 02:45:45;;;;;;;7.63;5.72;;;21.10;99.90;;;;;;6278116;22;20010;-76
2022/09/07 02:48:11;;;;;;;7.03;6.03;;;21.10;99.90;;;;;;6278245;22;20078;-76
2022/09/07 02:50:36;;;;;;;9.80;5.90;;;21.10;99.90;;;;;;6305301;22;20027;-76
2022/09/07 02:53:15;;;;;;;8.38;6.15;;;21.10;99.90;;;;;;6305335;22;20137;-76
2022/09/07 02:56:42;;;;;;;12.45;5.68;;;21.10;99.90;;;;;;6305292;22;20644;-76
2022/09/07 02:59:20;;;;;;;6.93;6.00;;;21.10;99.90;;;;;;6180466;23;20097;-76
2022/09/07 03:01:58;;;;;;;6.00;5.50;;;21.10;99.90;;;;;;6180338;23;20576;-76
2022/09/07 03:05:14;;;;;;;8.32;6.05;;;21.10;99.90;;;;;;6278721;22;20414;-78
2022/09/07 03:08:00;;;;;;;7.57;6.25;;;21.10;99.90;;;;;;6195216;22;20005;-77
2022/09/07 03:10:27;;;;;;;7.43;5.72;;;21.10;99.90;;;;;;6277866;22;19999;-76
2022/09/07 03:12:53;;;;;;;6.13;5.60;;;21.10;99.90;;;;;;6305216;22;20009;-76
2022/09/07 03:15:22;;;;;;;6.38;5.82;;;21.10;99.90;;;;;;6305086;22;20061;-77
2022/09/07 03:17:48;;;;;;;7.93;5.95;;;21.10;99.90;;;;;;6305222;22;19996;-76
2022/09/07 03:20:15;;;;;;;7.20;5.53;;;21.10;99.90;;;;;;6305133;22;20010;-76
2022/09/07 03:22:42;;;;;;;6.72;6.00;;;21.00;99.90;;;;;;6277820;22;20049;-76
2022/09/07 03:25:08;;;;;;;8.57;5.85;;;21.00;99.90;;;;;;6305267;22;20007;-76
2022/09/07 03:27:34;;;;;;;8.40;5.80;;;21.00;99.90;;;;;;6304867;22;20029;-76
2022/09/07 03:30:00;;;;;;;6.55;5.88;;;21.00;99.90;;;;;;6304833;22;19999;-76
2022/09/07 03:32:31;;;;;;;7.43;5.25;;;21.00;99.90;;;;;;6304632;22;20442;-77
2022/09/07 03:34:57;;;;;;;6.15;5.15;;;21.00;99.90;;;;;;6277488;22;20015;-77
2022/09/07 03:37:23;;;;;;;9.18;5.63;;;21.00;99.90;;;;;;6305139;22;20630;-77
2022/09/07 03:39:49;;;;;;;5.93;5.38;;;21.00;99.90;;;;;;6305128;22;20048;-77
2022/09/07 03:42:14;;;;;;;7.15;5.75;;;21.00;99.90;;;;;;6304846;22;20082;-76
2022/09/07 03:44:40;;;;;;;5.47;4.97;;;21.10;99.90;;;;;;6304956;22;20012;-76
2022/09/07 03:47:06;;;;;;;8.05;5.30;;;21.10;99.90;;;;;;6304599;22;20304;-76
2022/09/07 03:49:32;;;;;;;7.78;5.40;;;21.10;99.90;;;;;;6305006;22;20057;-76
2022/09/07 03:51:57;;;;;;;6.38;5.78;;;21.10;99.90;;;;;;6304430;22;19995;-76
2022/09/07 03:54:23;;;;;;;7.22;5.60;;;21.10;99.90;;;;;;6305204;22;20082;-76
2022/09/07 03:56:49;;;;;;;7.57;5.97;;;21.20;99.90;;;;;;6277314;22;20082;-76
2022/09/07 03:59:15;;;;;;;6.35;5.75;;;21.30;99.90;;;;;;6304735;22;20082;-76
2022/09/07 04:01:40;;;;;;;6.50;5.53;;;21.40;99.90;;;;;;6304509;22;20003;-76
2022/09/07 04:04:06;;;;;;;6.13;5.20;;;21.40;99.90;;;;;;6305221;22;20007;-76
2022/09/07 04:06:32;;;;;;;6.20;5.22;;;21.40;99.90;;;;;;6304716;22;20087;-78
2022/09/07 04:09:05;;;;;;;6.10;5.10;;;21.40;99.90;;;;;;6304983;22;20419;-78
2022/09/07 04:11:31;;;;;;;5.57;5.05;;;21.50;99.90;;;;;;6304442;22;20002;-78
2022/09/07 04:13:57;;;;;;;10.27;5.28;;;21.50;99.90;;;;;;6304752;22;20003;-78
2022/09/07 04:16:24;;;;;;;8.18;5.45;;;21.50;99.90;;;;;;6304600;22;20004;-78
2022/09/07 04:18:53;;;;;;;7.03;5.32;;;21.50;99.90;;;;;;6277754;22;20010;-77
2022/09/07 04:21:24;;;;;;;5.97;5.38;;;21.50;99.90;;;;;;6304436;22;20462;-77
2022/09/07 04:23:50;;;;;;;10.05;6.03;;;21.50;99.90;;;;;;6305013;22;19999;-77
2022/09/07 04:26:20;;;;;;;9.35;5.68;;;21.50;99.90;;;;;;6277036;22;20009;-77
2022/09/07 04:28:46;;;;;;;6.05;5.10;;;21.60;99.90;;;;;;6304576;22;20008;-78
2022/09/07 04:31:14;;;;;;;9.85;5.35;;;21.70;99.90;;;;;;6277269;22;20488;-78
2022/09/07 04:33:41;;;;;;;7.40;5.10;;;21.70;99.90;;;;;;6304926;22;20015;-78
2022/09/07 04:36:07;;;;;;;7.28;4.68;;;21.80;99.90;;;;;;6304321;22;20395;-78
2022/09/07 04:38:33;;;;;;;7.85;4.50;;;21.80;99.90;;;;;;6304978;22;20052;-78
2022/09/07 04:41:00;;;;;;;8.40;4.82;;;21.80;99.90;;;;;;6304190;22;20011;-77
2022/09/07 04:43:26;;;;;;;6.05;5.07;;;21.90;99.90;;;;;;6304517;22;20000;-78
2022/09/07 04:45:52;;;;;;;7.75;5.22;;;22.00;99.90;;;;;;6304693;22;20026;-78
2022/09/07 04:48:18;;;;;;;6.88;5.30;;;22.00;99.90;;;;;;6304706;22;19998;-78
2022/09/07 04:50:43;;;;;;;7.88;5.10;;;22.10;99.90;;;;;;6277149;22;20098;-78
2022/09/07 04:53:09;;;;;;;9.52;5.25;;;22.10;99.90;;;;;;6304907;22;20000;-78
2022/09/07 04:55:35;;;;;;;6.85;4.80;;;22.10;99.90;;;;;;6277397;22;20423;-78
2022/09/07 04:58:00;;;;;;;6.18;4.65;;;22.10;99.90;;;;;;6304293;22;19996;-78
2022/09/07 05:00:26;;;;;;;5.65;4.63;;;22.20;99.90;;;;;;6304180;22;19998;-78
2022/09/07 05:02:52;;;;;;;8.43;4.22;;;22.20;99.90;;;;;;6305606;22;20316;-78
2022/09/07 05:05:18;;;;;;;8.07;4.32;;;22.20;99.90;;;;;;6306715;22;20027;-78
2022/09/07 05:07:43;;;;;;;6.90;4.60;;;22.20;99.90;;;;;;6306662;22;19999;-78
2022/09/07 05:10:10;;;;;;;8.25;4.82;;;22.30;99.90;;;;;;6278958;22;20419;-78
2022/09/07 05:12:36;;;;;;;9.20;4.85;;;22.40;99.90;;;;;;6306264;22;20000;-78
2022/09/07 05:15:02;;;;;;;7.65;4.15;;;22.40;99.90;;;;;;6306250;22;20011;-78
2022/09/07 05:17:29;;;;;;;7.63;4.10;;;22.50;99.90;;;;;;6306222;22;20000;-78
2022/09/07 05:19:56;;;;;;;6.25;3.60;;;22.60;99.90;;;;;;6279059;22;20053;-78
2022/09/07 05:22:23;;;;;;;7.28;3.72;;;22.70;99.90;;;;;;6277354;22;20441;-78
2022/09/07 05:24:49;;;;;;;9.98;3.70;;;22.80;99.90;;;;;;6305989;22;20505;-77
2022/09/07 05:27:15;;;;;;;5.60;3.50;;;22.80;99.90;;;;;;6306223;22;20049;-78
2022/09/07 05:29:41;;;;;;;4.68;4.00;;;22.90;99.90;;;;;;6278673;22;20433;-78
2022/09/07 05:32:08;;;;;;;4.35;3.80;;;23.00;99.90;;;;;;6277842;22;20461;-78
2022/09/07 05:34:33;;;;;;;5.07;3.60;;;23.10;99.90;;;;;;6306505;22;20010;-77
2022/09/07 05:37:00;;;;;;;7.75;3.75;;;23.10;99.90;;;;;;6306271;22;19999;-78
2022/09/07 05:39:26;;;;;;;4.53;3.88;;;23.20;99.90;;;;;;6306211;22;20006;-77
2022/09/07 05:41:52;;;;;;;4.88;3.50;;;23.30;99.90;;;;;;6305362;22;20006;-78
2022/09/07 05:44:18;;;;;;;6.57;3.83;;;23.30;99.90;;;;;;6278685;22;20006;-78
2022/09/07 05:46:44;;;;;;;6.93;3.47;;;23.50;99.90;;;;;;6278341;22;20030;-78
2022/09/07 05:49:10;;;;;;;10.13;4.40;;;23.60;99.90;;;;;;6303815;22;19995;-78
2022/09/07 05:51:36;;;;;;;5.43;4.03;;;23.70;99.90;;;;;;6303458;22;20435;-77
2022/09/07 05:54:02;;;;;;;5.25;4.40;;;23.70;99.90;;;;;;6303788;22;19995;-78
2022/09/07 05:56:28;;;;;;;6.22;3.75;;;23.80;99.90;;;;;;6303271;22;20010;-77
2022/09/07 05:58:54;;;;;;;6.10;3.65;;;23.90;99.90;;;;;;6304217;22;19999;-78
2022/09/07 06:01:20;;;;;;;4.35;3.42;;;23.90;99.90;;;;;;6303955;22;20082;-77
2022/09/07 06:03:45;;;;;;;5.20;4.10;;;23.90;99.90;;;;;;6277362;22;20387;-76
2022/09/07 06:06:14;;;;;;;3.72;3.25;;;23.90;99.90;;;;;;6305554;22;20433;-77
2022/09/07 06:08:47;;;;;;;6.78;3.80;;;24.00;99.90;;;;;;6306139;22;20026;-78
2022/09/07 06:11:21;;;;;;;8.20;3.88;;;24.00;99.90;;;;;;6278144;22;20427;-77
2022/09/07 06:13:48;;;;;;;8.60;3.90;;;24.10;99.90;;;;;;6306131;22;20042;-78
2022/09/07 06:16:14;;;;;;;8.02;3.50;;;24.30;99.90;;;;;;6305171;22;20007;-78
2022/09/07 06:18:42;;;;;;;8.02;4.03;;;24.40;99.80;;;;;;6306179;22;20007;-77
2022/09/07 06:21:17;;;;;;;308.40;109.38;;;24.50;99.20;;;;;;6305029;22;20541;-76
2022/09/07 06:23:43;;;;;;;40.72;15.98;;;24.50;99.20;;;;;;6306024;22;19999;-76
2022/09/07 06:26:11;;;;;;;14.65;6.40;;;24.60;99.10;;;;;;6305612;22;20022;-76
2022/09/07 06:28:39;;;;;;;23.08;6.95;;;24.70;99.20;;;;;;6277884;22;20011;-75
2022/09/07 06:31:10;;;;;;;72.68;16.08;;;24.90;99.10;;;;;;6305437;22;20026;-75
2022/09/07 06:33:36;;;;;;;68.55;16.33;;;25.00;98.40;;;;;;6305817;22;20015;-76
2022/09/07 06:36:04;;;;;;;39.63;12.88;;;25.10;98.20;;;;;;6304884;22;20094;-76
2022/09/07 06:38:35;;;;;;;27.17;7.57;;;25.10;98.10;;;;;;6305564;22;19991;-76
2022/09/07 06:41:07;;;;;;;20.55;6.85;;;25.20;97.70;;;;;;6305454;22;20095;-79
2022/09/07 06:43:33;;;;;;;17.40;5.85;;;25.30;98.00;;;;;;6305421;22;19996;-76
2022/09/07 06:46:00;;;;;;;21.83;5.88;;;25.30;97.60;;;;;;6305268;22;19999;-76
2022/09/07 06:48:26;;;;;;;19.42;5.20;;;25.40;97.50;;;;;;6305358;22;20004;-76
2022/09/07 06:51:02;;;;;;;17.25;5.60;;;25.50;97.80;;;;;;6305417;22;19995;-76
2022/09/07 06:53:33;;;;;;;42.22;14.98;;;25.50;97.90;;;;;;6278332;22;20426;-75
2022/09/07 06:56:00;;;;;;;37.00;16.77;;;25.50;97.30;;;;;;6305134;22;20011;-78
2022/09/07 06:58:27;;;;;;;43.40;10.07;;;25.50;97.60;;;;;;6305236;22;20027;-76
2022/09/07 07:00:55;;;;;;;70.25;14.27;;;25.50;97.60;;;;;;6305111;22;20010;-76
2022/09/07 07:03:21;;;;;;;45.22;11.98;;;25.50;97.50;;;;;;6305134;22;20442;-75
2022/09/07 07:05:54;;;;;;;26.60;8.10;;;25.60;98.00;;;;;;6303645;22;20038;-75
2022/09/07 07:08:22;;;;;;;14.43;6.07;;;25.60;98.10;;;;;;6303053;22;20007;-75
2022/09/07 07:10:48;;;;;;;11.25;4.75;;;25.70;97.90;;;;;;6302944;22;19991;-75
2022/09/07 07:13:15;;;;;;;13.77;4.85;;;25.70;97.60;;;;;;6303033;22;19999;-74
2022/09/07 07:15:41;;;;;;;8.68;4.30;;;25.70;97.60;;;;;;6275092;22;20068;-76
2022/09/07 07:18:07;;;;;;;11.50;3.97;;;25.70;97.60;;;;;;6303159;22;20025;-76
2022/09/07 07:20:37;;;;;;;12.30;4.13;;;25.70;97.90;;;;;;6275721;22;20090;-76
2022/09/07 07:23:04;;;;;;;10.85;4.53;;;25.70;98.40;;;;;;6303898;22;20395;-74
2022/09/07 07:25:30;;;;;;;13.38;4.57;;;25.70;99.30;;;;;;6302479;22;20003;-74
2022/09/07 07:27:56;;;;;;;8.10;4.85;;;25.50;99.90;;;;;;6303098;22;20085;-75
2022/09/07 07:30:21;;;;;;;13.45;5.35;;;25.30;99.90;;;;;;6303207;22;20000;-74
2022/09/07 07:32:47;;;;;;;10.70;5.20;;;25.20;99.90;;;;;;6303278;22;20435;-75
2022/09/07 07:35:13;;;;;;;13.32;5.15;;;25.10;99.90;;;;;;6303536;22;20082;-75
2022/09/07 07:37:39;;;;;;;9.20;5.60;;;25.10;99.90;;;;;;6303515;22;20004;-75
2022/09/07 07:40:08;;;;;;;6.07;4.72;;;25.00;99.90;;;;;;6305004;22;20480;-74
2022/09/07 07:42:35;;;;;;;6.07;4.75;;;25.00;99.90;;;;;;6277341;22;20021;-74
2022/09/07 07:45:01;;;;;;;10.57;5.18;;;25.00;99.90;;;;;;6304856;22;20395;-75
2022/09/07 07:47:27;;;;;;;8.90;4.72;;;25.00;99.90;;;;;;6304893;22;20064;-74
2022/09/07 07:49:53;;;;;;;6.60;4.63;;;25.00;99.90;;;;;;6277533;22;20000;-74
2022/09/07 07:52:19;;;;;;;12.43;4.95;;;25.00;99.90;;;;;;6304711;22;20011;-74
2022/09/07 07:54:45;;;;;;;7.47;4.78;;;25.00;99.90;;;;;;6304822;22;20007;-76
2022/09/07 07:57:11;;;;;;;11.10;5.18;;;25.00;99.90;;;;;;6304644;22;19995;-75
2022/09/07 07:59:37;;;;;;;11.13;5.15;;;25.10;99.90;;;;;;6304876;22;20004;-75
2022/09/07 08:02:08;;;;;;;8.18;4.32;;;25.10;99.90;;;;;;6304447;22;19996;-74
2022/09/07 08:04:35;;;;;;;7.40;4.82;;;25.20;99.90;;;;;;6304754;22;20026;-74
2022/09/07 08:07:01;;;;;;;11.15;4.50;;;25.30;99.90;;;;;;6304665;22;20003;-75
2022/09/07 08:09:27;;;;;;;85.88;69.72;;;25.40;99.90;;;;;;6305188;22;19992;-74
2022/09/07 08:11:54;;;;;;;22.67;17.40;;;25.40;99.90;;;;;;6304294;22;20081;-75
2022/09/07 08:14:20;;;;;;;8.48;5.70;;;25.40;99.90;;;;;;6304875;22;20041;-74
2022/09/07 08:16:46;;;;;;;13.40;5.45;;;25.40;99.90;;;;;;6277098;22;20007;-75
2022/09/07 08:19:12;;;;;;;7.68;6.22;;;25.30;99.90;;;;;;6277559;22;20005;-74
2022/09/07 08:21:38;;;;;;;11.65;5.13;;;25.30;99.90;;;;;;6304543;22;20010;-74
2022/09/07 08:24:03;;;;;;;7.50;5.63;;;25.30;99.90;;;;;;6305142;22;20027;-74
2022/09/07 08:26:29;;;;;;;9.90;5.22;;;25.40;99.90;;;;;;6276981;22;20013;-77
2022/09/07 08:28:55;;;;;;;5.22;4.68;;;25.40;99.90;;;;;;6304846;22;20418;-75
2022/09/07 08:31:21;;;;;;;6.22;4.90;;;25.40;99.90;;;;;;6304245;22;20022;-75
2022/09/07 08:33:47;;;;;;;5.32;4.70;;;25.50;99.90;;;;;;6304621;22;20194;-75
2022/09/07 08:36:18;;;;;;;9.88;4.75;;;25.60;99.90;;;;;;6304311;22;20008;-75
2022/09/07 08:38:45;;;;;;;7.20;4.18;;;25.70;99.90;;;;;;6279416;22;20060;-76
2022/09/07 08:41:43;;;;;;;5.43;3.70;;;25.90;99.90;;;;;;6279139;22;20111;-74
2022/09/07 08:44:24;;;;;;;8.13;3.78;;;26.00;99.70;;;;;;6270815;22;20616;-76
2022/09/07 08:46:53;;;;;;;5.68;4.03;;;26.20;99.90;;;;;;6278981;22;20010;-76
2022/09/07 08:49:31;;;;;;;4.97;3.08;;;26.30;99.90;;;;;;6306825;22;20034;-77
2022/09/07 08:52:07;;;;;;;7.53;3.78;;;26.50;99.40;;;;;;6279027;22;20007;-77
2022/09/07 08:54:34;;;;;;;8.48;3.97;;;26.70;98.20;;;;;;6306950;22;20007;-77
2022/09/07 08:57:02;;;;;;;4.90;3.35;;;26.80;98.10;;;;;;6306192;22;20011;-77
2022/09/07 08:59:54;;;;;;;10.48;4.97;;;26.70;98.60;;;;;;6279304;22;20419;-77
2022/09/07 09:02:19;;;;;;;9.67;4.67;;;26.70;98.00;;;;;;6306424;22;20003;-77
2022/09/07 09:04:45;;;;;;;7.63;4.45;;;26.60;97.60;;;;;;6306759;22;20363;-77
2022/09/07 09:07:32;;;;;;;10.90;5.90;;;26.70;98.10;;;;;;6306152;22;20000;-77
2022/09/07 09:10:16;;;;;;;15.18;6.43;;;26.80;98.80;;;;;;6306241;22;20000;-77
2022/09/07 09:12:54;;;;;;;38.63;26.30;;;26.80;98.40;;;;;;6306159;22;20105;-76
2022/09/07 09:16:06;;;;;;;19.05;5.25;;;26.70;99.00;;;;;;6306230;22;20026;-77
2022/09/07 09:18:56;;;;;;;9.88;4.25;;;26.60;99.80;;;;;;6289740;22;20027;-76
2022/09/07 09:21:22;;;;;;;9.38;4.85;;;26.50;99.60;;;;;;6278553;22;20038;-76
2022/09/07 09:23:52;;;;;;;12.90;4.93;;;26.40;99.60;;;;;;6306585;22;20419;-76
2022/09/07 09:26:26;;;;;;;7.03;4.53;;;26.30;99.90;;;;;;6306137;22;20082;-77
2022/09/07 09:28:52;;;;;;;5.93;4.53;;;26.30;99.90;;;;;;6305918;22;20018;-77
2022/09/07 09:31:32;;;;;;;8.23;4.40;;;26.30;98.90;;;;;;6306130;22;20406;-77
2022/09/07 09:34:04;;;;;;;6.70;3.97;;;26.20;98.20;;;;;;6306263;22;20449;-76
2022/09/07 09:36:33;;;;;;;4.60;3.45;;;26.30;98.50;;;;;;6278584;22;20086;-76
2022/09/07 09:39:02;;;;;;;5.68;3.28;;;26.30;98.10;;;;;;6278844;22;20008;-76
2022/09/07 09:41:35;;;;;;;4.18;2.97;;;26.30;98.00;;;;;;6278376;22;19999;-75
2022/09/07 09:44:02;;;;;;;5.60;3.60;;;26.40;97.40;;;;;;6305944;22;20239;-76
2022/09/07 09:46:31;;;;;;;3.50;2.80;;;26.40;97.40;;;;;;6305811;22;20369;-75
2022/09/07 09:49:04;;;;;;;5.30;3.38;;;26.40;96.20;;;;;;6278981;22;20007;-76
2022/09/07 09:51:33;;;;;;;6.65;3.63;;;26.40;97.20;;;;;;6305761;22;20422;-75
2022/09/07 09:54:19;;;;;;;6.15;3.50;;;26.40;97.50;;;;;;6278710;22;20004;-76
2022/09/07 09:56:46;;;;;;;5.93;2.90;;;26.50;97.70;;;;;;6278468;22;20019;-76
2022/09/07 09:59:17;;;;;;;3.75;2.67;;;26.50;96.90;;;;;;6306133;22;19995;-77
2022/09/07 10:01:48;;;;;;;5.07;3.53;;;26.50;95.60;;;;;;6305674;22;20461;-76
2022/09/07 10:04:34;;;;;;;11.35;3.70;;;26.40;96.60;;;;;;6306131;22;19995;-76
2022/09/07 10:07:13;;;;;;;15.25;4.55;;;26.40;96.60;;;;;;6305436;22;20003;-76
2022/09/07 10:09:41;;;;;;;8.65;3.45;;;26.30;97.60;;;;;;6278458;22;20057;-75
2022/09/07 10:12:31;;;;;;;7.72;3.88;;;26.20;97.60;;;;;;6278131;22;20003;-75
2022/09/07 10:15:00;;;;;;;2.92;2.08;;;26.00;97.90;;;;;;6305768;22;20430;-76
2022/09/07 10:17:35;;;;;;;5.78;2.55;;;25.90;96.20;;;;;;6305742;22;20006;-75
2022/09/07 10:20:21;;;;;;;8.85;3.63;;;25.80;97.10;;;;;;6305769;22;20007;-75
2022/09/07 10:22:52;;;;;;;11.25;3.58;;;25.60;98.10;;;;;;6305338;22;19996;-75
2022/09/07 10:25:38;;;;;;;10.27;3.37;;;25.60;98.10;;;;;;6305699;22;20003;-74
2022/09/07 10:28:10;;;;;;;18.30;8.35;;;25.60;98.70;;;;;;6284273;22;20249;-74
2022/09/07 10:31:13;;;;;;;16.35;7.38;;;25.70;98.50;;;;;;6305878;22;20004;-75
2022/09/07 10:33:48;;;;;;;8.98;5.20;;;25.80;98.80;;;;;;6305862;22;20022;-75
2022/09/07 10:36:27;;;;;;;19.25;8.13;;;26.00;99.50;;;;;;6305591;22;20011;-76
2022/09/07 10:39:01;;;;;;;32.60;11.00;;;26.10;99.90;;;;;;6306001;22;20422;-75
2022/09/07 10:42:03;;;;;;;18.58;8.85;;;26.30;99.80;;;;;;6305560;22;20017;-75
2022/09/07 10:44:48;;;;;;;8.85;4.45;;;26.50;99.90;;;;;;6300230;22;20065;-76
2022/09/07 10:48:00;;;;;;;18.65;8.52;;;26.50;99.90;;;;;;6301346;22;20427;-75
2022/09/07 10:50:43;;;;;;;32.85;11.88;;;26.60;99.90;;;;;;6176098;23;20009;-76
2022/09/07 10:53:33;;;;;;;61.50;21.88;;;27.00;99.90;;;;;;6261819;22;20398;-76
2022/09/07 10:56:45;;;;;;;7.93;3.65;;;27.40;99.10;;;;;;6300828;22;20084;-78
2022/09/07 10:59:48;;;;;;;5.47;3.33;;;27.90;97.50;;;;;;6225983;22;19996;-76
2022/09/07 11:02:33;;;;;;;22.30;8.15;;;28.30;96.80;;;;;;6273351;22;20007;-76
2022/09/07 11:05:20;;;;;;;13.45;5.25;;;28.70;96.20;;;;;;6301060;22;20241;-76
2022/09/07 11:08:16;;;;;;;4.82;2.70;;;29.10;95.80;;;;;;6300959;22;19999;-77
2022/09/07 11:11:04;;;;;;;5.47;2.80;;;29.60;95.30;;;;;;6273363;22;20007;-77
2022/09/07 11:13:34;;;;;;;10.43;2.60;;;29.80;94.10;;;;;;6300795;22;20004;-76
2022/09/07 11:16:05;;;;;;;4.38;2.08;;;30.00;94.00;;;;;;6300458;22;20068;-75
2022/09/07 11:18:45;;;;;;;4.30;2.33;;;30.20;92.80;;;;;;6301048;22;20006;-75
2022/09/07 11:21:16;;;;;;;4.35;2.53;;;30.50;92.20;;;;;;6300537;22;20053;-76
2022/09/07 11:23:52;;;;;;;16.92;3.78;;;30.50;92.40;;;;;;6273708;22;20011;-75
2022/09/07 11:26:28;;;;;;;4.93;2.17;;;30.60;92.50;;;;;;6272726;22;20007;-75
2022/09/07 11:28:59;;;;;;;4.88;2.13;;;30.70;91.20;;;;;;6273694;22;20019;-76
2022/09/07 11:31:46;;;;;;;4.70;2.15;;;30.70;90.90;;;;;;6300635;22;20141;-75
2022/09/07 11:34:28;;;;;;;7.13;2.33;;;30.70;90.60;;;;;;6299683;22;20358;-75
2022/09/07 11:37:20;;;;;;;7.22;2.42;;;30.80;90.90;;;;;;6299212;22;20003;-75
2022/09/07 11:39:49;;;;;;;7.57;2.08;;;30.90;90.30;;;;;;6300129;22;20104;-75
2022/09/07 11:42:34;;;;;;;4.72;1.58;;;31.00;89.80;;;;;;6271998;22;20100;-76
2022/09/07 11:45:32;;;;;;;5.07;1.80;;;31.10;89.90;;;;;;6272135;22;20030;-75
2022/09/07 11:48:10;;;;;;;2.33;1.63;;;31.30;86.60;;;;;;6299470;22;20456;-75
2022/09/07 11:50:45;;;;;;;3.08;1.58;;;31.70;87.00;;;;;;6299466;22;20082;-75
2022/09/07 11:53:24;;;;;;;5.10;2.00;;;31.90;87.00;;;;;;6299771;22;20003;-75
2022/09/07 11:55:58;;;;;;;4.20;1.70;;;32.30;85.40;;;;;;6272048;22;20011;-77
2022/09/07 11:58:59;;;;;;;3.42;1.63;;;32.60;84.60;;;;;;6272421;22;20045;-76
2022/09/07 12:01:37;;;;;;;3.33;1.75;;;32.90;82.40;;;;;;6299035;22;19999;-76
2022/09/07 12:04:28;;;;;;;5.20;1.67;;;33.20;82.40;;;;;;6299449;22;19995;-76
2022/09/07 12:07:13;;;;;;;4.72;2.10;;;33.60;81.60;;;;;;6299450;22;19999;-75
2022/09/07 12:10:15;;;;;;;3.40;1.83;;;33.70;81.30;;;;;;6299914;22;20008;-75
2022/09/07 12:13:18;;;;;;;4.22;2.00;;;33.70;81.60;;;;;;6301456;22;20611;-76
2022/09/07 12:16:14;;;;;;;6.20;2.00;;;33.60;81.50;;;;;;6301557;22;20026;-77
2022/09/07 12:19:04;;;;;;;8.07;2.45;;;33.70;81.70;;;;;;6302484;22;20335;-76
2022/09/07 12:21:40;;;;;;;9.30;1.98;;;34.10;80.60;;;;;;6301253;22;20012;-76
2022/09/07 12:24:33;;;;;;;4.80;1.90;;;35.20;79.30;;;;;;6301761;22;20014;-76
2022/09/07 12:27:01;;;;;;;7.95;2.00;;;36.40;77.20;;;;;;6273907;22;20060;-76
2022/09/07 12:29:29;;;;;;;5.32;2.13;;;37.40;75.00;;;;;;6273450;22;20341;-76
2022/09/07 12:31:58;;;;;;;6.32;1.77;;;37.60;72.30;;;;;;6273976;22;20007;-77
2022/09/07 12:34:30;;;;;;;5.90;2.03;;;37.40;73.10;;;;;;6301513;22;20019;-76
2022/09/07 12:36:56;;;;;;;;;;;37.00;72.90;;;;;;6301826;22;20007;-77
2022/09/07 12:39:31;;;;;;;5.43;1.92;;;36.60;74.20;;;;;;6301434;22;19934;-75
2022/09/07 12:42:09;;;;;;;3.50;1.80;;;36.60;74.00;;;;;;6300734;22;20006;-75
2022/09/07 12:44:36;;;;;;;4.93;1.70;;;37.40;73.20;;;;;;6301309;22;19999;-75
2022/09/07 12:47:25;;;;;;;4.35;1.88;;;38.10;69.80;;;;;;6301327;22;20015;-76
2022/09/07 12:50:03;;;;;;;9.07;2.05;;;38.70;68.50;;;;;;6302131;22;20508;-75
2022/09/07 12:52:46;;;;;;;3.28;1.85;;;39.10;68.70;;;;;;6302271;22;20014;-77
2022/09/07 12:55:28;;;;;;;7.68;2.20;;;40.50;66.20;;;;;;6301926;22;20017;-78
2022/09/07 12:58:13;;;;;;;6.88;2.10;;;42.00;65.80;;;;;;6274619;22;20003;-78
2022/09/07 13:01:16;;;;;;;4.28;1.70;;;43.60;62.00;;;;;;6274835;22;20007;-77
2022/09/07 13:04:19;;;;;;;3.83;1.60;;;44.50;60.70;;;;;;6302073;22;20003;-77
2022/09/07 13:06:48;;;;;;;4.03;1.90;;;45.10;58.70;;;;;;6301904;22;20006;-77
2022/09/07 13:09:32;;;;;;;4.30;1.65;;;45.80;57.60;;;;;;6301215;22;20007;-76
2022/09/07 13:12:03;;;;;;;5.32;1.85;;;46.00;57.30;;;;;;6301774;22;19999;-76
2022/09/07 13:14:34;;;;;;;2.85;1.70;;;45.40;56.50;;;;;;6301760;22;20010;-76